Time;durP1;ratioP1;P1;durP2;ratioP2;P2;SDS_P1;SDS_P2;PMS_P1;PMS_P2;Temp;Humidity;BMP_temperature;BMP_pressure;BME280_temperature;BME280_humidity;BME280_pressure;Samples;Min_cycle;Max_cycle;Signal;HPM_P1;HPM_P2
2023/09/14 00:01:20;;;;;;;11.63;1.60;;;40.20;24.70;;;;;;5051252;28;20464;-67
2023/09/14 00:03:46;;;;;;;8.38;1.67;;;40.10;25.20;;;;;;5057610;28;20495;-64
2023/09/14 00:06:13;;;;;;;9.40;1.80;;;40.00;24.70;;;;;;5058898;28;20487;-68
2023/09/14 00:08:39;;;;;;;10.05;2.35;;;40.00;24.60;;;;;;5060520;28;20027;-68
2023/09/14 00:11:05;;;;;;;5.82;1.80;;;40.00;24.90;;;;;;5058704;28;20147;-66
2023/09/14 00:13:32;;;;;;;6.65;1.90;;;40.10;25.40;;;;;;5062035;28;20024;-68
2023/09/14 00:15:58;;;;;;;10.00;2.70;;;40.00;25.20;;;;;;5057966;28;20044;-67
2023/09/14 00:18:25;;;;;;;19.95;16.65;;;39.80;25.40;;;;;;5055536;28;20013;-68
2023/09/14 00:20:53;;;;;;;10.43;2.80;;;39.80;26.10;;;;;;5054330;28;20024;-66
2023/09/14 00:23:23;;;;;;;6.72;2.78;;;39.60;25.90;;;;;;5058010;28;20021;-67
2023/09/14 00:25:50;;;;;;;9.07;2.55;;;39.60;26.70;;;;;;5056088;28;20474;-68
2023/09/14 00:28:18;;;;;;;7.68;2.67;;;39.60;26.60;;;;;;5061863;28;20023;-66
2023/09/14 00:30:44;;;;;;;7.30;2.90;;;39.60;26.70;;;;;;5055406;28;20024;-67
2023/09/14 00:33:11;;;;;;;10.20;3.08;;;39.40;26.40;;;;;;5060067;28;20025;-67
2023/09/14 00:35:37;;;;;;;11.60;3.03;;;39.40;26.90;;;;;;5058023;28;20024;-68
2023/09/14 00:38:03;;;;;;;15.35;3.55;;;39.30;27.10;;;;;;5059406;28;20340;-68
2023/09/14 00:40:30;;;;;;;13.68;3.28;;;39.20;27.00;;;;;;5062270;28;20008;-66
2023/09/14 00:42:56;;;;;;;6.78;3.08;;;39.20;27.40;;;;;;5055046;28;20013;-66
2023/09/14 00:45:23;;;;;;;13.55;3.40;;;39.10;27.50;;;;;;5060387;28;20021;-66
2023/09/14 00:47:52;;;;;;;9.30;3.42;;;38.90;27.50;;;;;;5055300;28;20013;-65
2023/09/14 00:50:20;;;;;;;10.77;4.05;;;38.90;27.70;;;;;;5057125;28;20099;-68
2023/09/14 00:52:58;;;;;;;11.40;3.80;;;38.90;27.70;;;;;;5058423;28;20052;-69
2023/09/14 00:55:27;;;;;;;23.45;4.63;;;38.80;27.80;;;;;;5054895;28;20055;-68
2023/09/14 00:57:55;;;;;;;20.77;4.13;;;38.80;27.70;;;;;;5052779;28;20017;-67
2023/09/14 01:00:21;;;;;;;15.93;4.47;;;38.70;27.70;;;;;;5050186;28;20143;-68
2023/09/14 01:03:00;;;;;;;13.60;3.67;;;38.60;27.70;;;;;;5056683;28;20108;-66
2023/09/14 01:05:30;;;;;;;12.85;4.18;;;38.50;27.70;;;;;;5055592;28;20029;-67
2023/09/14 01:07:57;;;;;;;21.17;3.97;;;38.40;27.80;;;;;;5057447;28;20009;-67
2023/09/14 01:10:24;;;;;;;19.42;4.55;;;38.20;27.90;;;;;;5058935;28;20468;-66
2023/09/14 01:12:50;;;;;;;16.35;4.18;;;38.10;28.20;;;;;;5063840;28;20035;-67
2023/09/14 01:15:20;;;;;;;21.02;4.57;;;37.90;28.10;;;;;;5060077;28;20021;-66
2023/09/14 01:17:55;;;;;;;29.02;5.32;;;37.80;28.30;;;;;;5059460;28;20078;-65
2023/09/14 01:20:24;;;;;;;42.78;5.03;;;37.70;28.10;;;;;;5060033;28;20013;-65
2023/09/14 01:23:27;;;;;;;15.43;3.70;;;37.60;28.30;;;;;;5060048;28;20013;-67
2023/09/14 01:25:55;;;;;;;10.65;3.10;;;37.60;28.30;;;;;;5063532;28;20056;-67
2023/09/14 01:28:21;;;;;;;14.45;3.92;;;37.40;28.30;;;;;;5057194;28;20529;-64
2023/09/14 01:30:48;;;;;;;14.05;3.40;;;37.30;28.20;;;;;;5057883;28;20370;-65
2023/09/14 01:33:15;;;;;;;8.02;3.08;;;37.20;28.60;;;;;;5058070;28;20651;-66
2023/09/14 01:36:04;;;;;;;16.10;4.70;;;37.10;28.50;;;;;;5057434;28;20471;-66
2023/09/14 01:38:32;;;;;;;14.20;3.47;;;37.00;28.30;;;;;;5057009;28;20085;-67
2023/09/14 01:41:00;;;;;;;14.52;3.67;;;37.00;28.80;;;;;;5060387;28;20467;-66
2023/09/14 01:43:27;;;;;;;13.00;3.28;;;36.90;29.00;;;;;;5055703;28;20056;-66
2023/09/14 01:45:54;;;;;;;14.73;3.60;;;36.80;29.10;;;;;;5058877;28;20459;-64
2023/09/14 01:48:21;;;;;;;17.85;3.80;;;36.80;29.10;;;;;;5059217;28;20017;-67
2023/09/14 01:50:47;;;;;;;14.52;2.92;;;36.60;29.00;;;;;;5052441;28;20016;-65
2023/09/14 01:53:14;;;;;;;14.18;3.25;;;36.60;29.00;;;;;;5057398;28;20036;-65
2023/09/14 01:55:40;;;;;;;13.02;3.38;;;36.50;28.90;;;;;;5056872;28;20021;-65
2023/09/14 01:58:07;;;;;;;21.83;3.20;;;36.50;29.10;;;;;;5054710;28;20021;-65
2023/09/14 02:00:33;;;;;;;12.05;3.75;;;36.40;29.00;;;;;;5051938;28;20495;-66
2023/09/14 02:03:00;;;;;;;19.10;4.32;;;36.40;29.40;;;;;;5054356;28;20373;-66
2023/09/14 02:05:26;;;;;;;14.35;3.65;;;36.30;29.30;;;;;;5055305;28;20027;-65
2023/09/14 02:07:53;;;;;;;11.38;3.40;;;36.20;29.40;;;;;;5056067;28;20017;-64
2023/09/14 02:10:22;;;;;;;9.38;3.42;;;36.10;29.70;;;;;;5053594;28;20181;-67
2023/09/14 02:12:51;;;;;;;16.23;3.50;;;36.00;29.60;;;;;;5062084;28;20013;-67
2023/09/14 02:15:17;;;;;;;13.35;3.28;;;35.90;29.80;;;;;;5058383;28;20091;-67
2023/09/14 02:17:44;;;;;;;11.57;3.33;;;35.80;29.80;;;;;;5051423;28;20119;-65
2023/09/14 02:20:11;;;;;;;23.40;3.38;;;35.80;30.40;;;;;;5058371;28;20024;-66
2023/09/14 02:22:38;;;;;;;18.30;3.42;;;35.70;30.10;;;;;;5054335;28;20029;-66
2023/09/14 02:25:04;;;;;;;23.17;4.10;;;35.60;30.40;;;;;;5054670;28;20032;-67
2023/09/14 02:27:31;;;;;;;27.38;3.58;;;35.60;30.30;;;;;;5052903;28;20443;-67
2023/09/14 02:29:57;;;;;;;21.27;3.45;;;35.50;30.30;;;;;;5054944;28;20070;-67
2023/09/14 02:32:25;;;;;;;23.13;4.03;;;35.40;30.40;;;;;;5051988;28;20020;-66
2023/09/14 02:34:51;;;;;;;18.40;4.10;;;35.30;30.40;;;;;;5045695;28;20037;-66
2023/09/14 02:37:18;;;;;;;31.02;4.47;;;35.20;30.40;;;;;;5053551;28;20042;-67
2023/09/14 02:39:44;;;;;;;18.58;3.47;;;35.20;30.70;;;;;;5052922;28;20013;-67
2023/09/14 02:42:11;;;;;;;14.95;3.20;;;35.10;30.80;;;;;;5050150;28;20533;-66
2023/09/14 02:44:37;;;;;;;15.65;2.92;;;35.10;31.40;;;;;;5057198;28;20017;-66
2023/09/14 02:47:04;;;;;;;9.70;2.80;;;35.00;30.90;;;;;;5056347;28;20115;-66
2023/09/14 02:49:30;;;;;;;16.23;3.75;;;35.00;31.00;;;;;;5055425;28;20016;-65
2023/09/14 02:51:57;;;;;;;17.60;3.80;;;34.90;31.20;;;;;;5060069;28;20090;-66
2023/09/14 02:54:23;;;;;;;22.00;3.55;;;34.80;31.20;;;;;;5056580;28;20017;-67
2023/09/14 02:56:50;;;;;;;21.75;3.42;;;34.70;31.50;;;;;;5058559;28;20028;-67
2023/09/14 02:59:16;;;;;;;16.15;4.38;;;34.70;31.60;;;;;;5051306;28;20092;-68
2023/09/14 03:01:44;;;;;;;18.08;3.42;;;34.50;32.10;;;;;;5049402;28;20016;-66
2023/09/14 03:04:12;;;;;;;14.90;3.50;;;34.50;32.20;;;;;;5052005;28;20024;-66
2023/09/14 03:06:39;;;;;;;12.48;3.78;;;34.50;32.40;;;;;;5055122;28;20073;-66
2023/09/14 03:09:05;;;;;;;21.73;4.78;;;34.30;32.40;;;;;;5054831;28;20013;-66
2023/09/14 03:11:32;;;;;;;14.95;4.00;;;34.20;32.40;;;;;;5054758;28;20017;-66
2023/09/14 03:13:58;;;;;;;15.02;3.58;;;34.20;32.80;;;;;;5061528;28;20091;-67
2023/09/14 03:16:24;;;;;;;13.52;3.15;;;34.10;32.80;;;;;;5058781;28;20348;-67
2023/09/14 03:18:52;;;;;;;12.98;3.38;;;34.00;32.90;;;;;;5055578;28;20159;-67
2023/09/14 03:21:24;;;;;;;12.65;3.28;;;34.00;33.00;;;;;;5053659;28;20016;-67
2023/09/14 03:23:51;;;;;;;16.13;3.92;;;33.80;33.00;;;;;;5055447;28;20376;-67
2023/09/14 03:26:18;;;;;;;18.70;3.25;;;33.80;33.50;;;;;;5054343;28;20074;-66
2023/09/14 03:28:49;;;;;;;21.20;3.65;;;33.70;33.70;;;;;;5055066;28;20055;-67
2023/09/14 03:31:15;;;;;;;16.23;3.38;;;33.50;33.50;;;;;;5060438;28;20491;-66
2023/09/14 03:33:42;;;;;;;18.02;3.28;;;33.50;33.60;;;;;;5050165;28;20039;-66
2023/09/14 03:36:10;;;;;;;10.68;3.67;;;33.40;33.70;;;;;;5051899;28;20059;-67
2023/09/14 03:38:36;;;;;;;17.63;3.30;;;33.40;34.00;;;;;;5053916;28;20040;-65
2023/09/14 03:41:03;;;;;;;18.92;3.67;;;33.30;34.00;;;;;;5059011;28;20016;-68
2023/09/14 03:43:29;;;;;;;19.65;3.28;;;33.30;34.00;;;;;;5055749;28;20036;-67
2023/09/14 03:45:57;;;;;;;17.83;3.47;;;33.20;34.10;;;;;;5058707;28;20036;-67
2023/09/14 03:48:23;;;;;;;15.95;3.17;;;33.20;34.30;;;;;;5057919;28;20401;-65
2023/09/14 03:50:51;;;;;;;23.00;3.20;;;33.20;34.40;;;;;;5056604;28;20071;-67
2023/09/14 03:53:18;;;;;;;15.48;3.30;;;33.10;34.40;;;;;;5051620;28;20070;-66
2023/09/14 03:55:44;;;;;;;21.85;4.15;;;32.90;34.40;;;;;;5058862;28;20816;-65
2023/09/14 03:58:11;;;;;;;11.93;3.30;;;32.90;34.50;;;;;;5056587;28;20099;-66
2023/09/14 04:00:37;;;;;;;11.77;3.58;;;32.80;34.20;;;;;;5054294;28;20509;-67
2023/09/14 04:03:04;;;;;;;26.00;3.65;;;32.80;34.60;;;;;;5059533;28;20028;-67
2023/09/14 04:05:30;;;;;;;15.23;4.32;;;32.80;34.40;;;;;;5057239;28;20029;-66
2023/09/14 04:07:57;;;;;;;12.52;3.30;;;32.70;34.70;;;;;;5056328;28;20013;-65
2023/09/14 04:10:23;;;;;;;13.88;4.03;;;32.70;34.70;;;;;;5044820;28;20024;-65
2023/09/14 04:12:50;;;;;;;15.07;3.17;;;32.60;34.70;;;;;;5058375;28;20087;-68
2023/09/14 04:15:17;;;;;;;18.35;3.05;;;32.60;35.00;;;;;;5061615;28;20013;-65
2023/09/14 04:17:43;;;;;;;13.75;3.00;;;32.60;34.80;;;;;;5061529;28;20025;-66
2023/09/14 04:20:10;;;;;;;12.23;3.70;;;32.50;34.60;;;;;;5062469;28;20025;-66
2023/09/14 04:22:37;;;;;;;19.60;3.05;;;32.50;34.80;;;;;;5057664;28;20102;-65
2023/09/14 04:25:05;;;;;;;16.15;3.42;;;32.50;34.90;;;;;;5057188;28;20025;-65
2023/09/14 04:27:32;;;;;;;11.77;2.80;;;32.40;34.80;;;;;;5059744;28;20426;-65
2023/09/14 04:29:59;;;;;;;16.08;3.22;;;32.30;34.80;;;;;;5057691;28;20017;-66
2023/09/14 04:32:25;;;;;;;12.75;3.17;;;32.20;34.80;;;;;;5057873;28;20471;-67
2023/09/14 04:34:52;;;;;;;21.15;2.85;;;32.10;34.90;;;;;;5060977;28;20111;-66
2023/09/14 04:37:18;;;;;;;12.77;2.70;;;32.10;34.90;;;;;;5057814;28;20466;-65
2023/09/14 04:39:46;;;;;;;13.68;3.10;;;32.10;35.00;;;;;;5061216;28;20075;-67
2023/09/14 04:42:13;;;;;;;10.27;2.92;;;32.00;34.90;;;;;;5066158;28;20040;-66
2023/09/14 04:44:39;;;;;;;18.33;3.28;;;32.00;35.10;;;;;;5062123;28;20374;-67
2023/09/14 04:47:06;;;;;;;13.27;3.00;;;31.90;34.90;;;;;;5057521;28;20066;-67
2023/09/14 04:49:33;;;;;;;13.38;2.60;;;31.90;34.80;;;;;;5060138;28;20008;-66
2023/09/14 04:51:59;;;;;;;11.20;2.63;;;31.80;34.80;;;;;;5057653;28;20497;-66
2023/09/14 04:54:25;;;;;;;13.65;2.50;;;31.70;34.70;;;;;;5056656;28;20460;-67
2023/09/14 04:56:55;;;;;;;20.23;2.75;;;31.60;34.80;;;;;;5058320;28;20012;-66
2023/09/14 04:59:24;;;;;;;11.73;3.25;;;31.60;34.90;;;;;;5042367;28;20025;-66
2023/09/14 05:01:50;;;;;;;15.38;3.20;;;31.50;34.80;;;;;;5054609;28;20020;-66
2023/09/14 05:04:17;;;;;;;5.43;2.10;;;31.50;34.80;;;;;;5055073;28;20040;-63
2023/09/14 05:06:44;;;;;;;10.75;2.42;;;31.40;35.00;;;;;;5056871;28;20090;-64
2023/09/14 05:09:10;;;;;;;13.18;2.97;;;31.40;35.10;;;;;;5055337;28;20043;-64
2023/09/14 05:11:37;;;;;;;13.32;3.17;;;31.40;35.30;;;;;;5057376;28;20456;-64
2023/09/14 05:14:03;;;;;;;10.10;2.63;;;31.30;35.00;;;;;;5059459;28;20073;-65
2023/09/14 05:16:29;;;;;;;9.65;2.78;;;31.30;35.20;;;;;;5053326;28;20028;-66
2023/09/14 05:18:56;;;;;;;9.40;2.22;;;31.30;35.20;;;;;;5055236;28;20041;-67
2023/09/14 05:21:22;;;;;;;11.07;2.42;;;31.10;35.50;;;;;;5054933;28;20013;-64
2023/09/14 05:23:49;;;;;;;16.80;2.90;;;31.10;35.20;;;;;;5052640;28;20021;-65
2023/09/14 05:26:15;;;;;;;9.40;2.90;;;31.00;35.30;;;;;;5058291;28;20079;-64
2023/09/14 05:28:42;;;;;;;12.75;3.38;;;31.00;35.50;;;;;;5064070;28;20043;-65
2023/09/14 05:31:08;;;;;;;13.48;4.55;;;30.90;35.40;;;;;;5057328;28;20051;-64
2023/09/14 05:33:35;;;;;;;9.43;2.70;;;30.90;35.20;;;;;;5054921;28;20021;-65
2023/09/14 05:36:01;;;;;;;10.48;2.00;;;30.90;35.60;;;;;;5053346;28;20013;-65
2023/09/14 05:38:27;;;;;;;8.43;1.65;;;30.90;35.20;;;;;;5060291;28;20032;-67
2023/09/14 05:40:54;;;;;;;8.90;1.77;;;30.80;35.30;;;;;;5043414;28;20028;-65
2023/09/14 05:43:20;;;;;;;12.63;1.83;;;30.80;35.20;;;;;;5051812;28;20490;-65
2023/09/14 05:45:47;;;;;;;6.88;1.92;;;30.80;35.20;;;;;;5053376;28;20036;-66
2023/09/14 05:48:13;;;;;;;9.30;5.13;;;30.70;35.60;;;;;;5060973;28;20021;-64
2023/09/14 05:50:39;;;;;;;23.60;14.63;;;30.70;35.50;;;;;;5053335;28;20074;-64
2023/09/14 05:53:06;;;;;;;15.18;4.18;;;30.70;35.30;;;;;;5058887;28;20021;-64
2023/09/14 05:55:32;;;;;;;7.72;2.10;;;30.70;35.30;;;;;;5054987;28;20013;-63
2023/09/14 05:58:01;;;;;;;9.77;1.73;;;30.60;35.30;;;;;;5055558;28;20132;-64
2023/09/14 06:00:27;;;;;;;14.18;2.25;;;30.60;35.60;;;;;;5052927;28;20455;-64
2023/09/14 06:02:54;;;;;;;5.13;1.80;;;30.60;35.80;;;;;;5059355;28;20455;-66
2023/09/14 06:05:20;;;;;;;9.52;1.80;;;30.50;35.70;;;;;;5059987;28;20120;-64
2023/09/14 06:07:47;;;;;;;6.95;1.90;;;30.40;36.00;;;;;;5059620;28;20012;-63
2023/09/14 06:10:14;;;;;;;6.95;1.80;;;30.40;35.90;;;;;;5058503;28;20016;-67
2023/09/14 06:12:40;;;;;;;12.88;2.40;;;30.30;36.20;;;;;;5057532;28;20013;-65
2023/09/14 06:15:07;;;;;;;11.73;2.20;;;30.30;36.30;;;;;;5056882;28;20420;-65
2023/09/14 06:17:34;;;;;;;12.50;2.17;;;30.20;36.10;;;;;;5055718;28;20017;-63
2023/09/14 06:20:00;;;;;;;8.25;1.80;;;30.10;36.20;;;;;;5056515;28;20356;-64
2023/09/14 06:22:27;;;;;;;9.23;1.67;;;30.10;36.50;;;;;;5060222;28;20063;-65
2023/09/14 06:24:53;;;;;;;7.28;1.95;;;30.10;36.30;;;;;;5053622;28;20020;-64
2023/09/14 06:27:19;;;;;;;6.88;1.60;;;30.10;36.50;;;;;;5058262;28;20490;-62
2023/09/14 06:29:46;;;;;;;6.53;1.90;;;30.00;36.30;;;;;;5055155;28;20017;-64
2023/09/14 06:32:12;;;;;;;4.15;1.63;;;30.00;36.40;;;;;;5054922;28;20020;-65
2023/09/14 06:34:39;;;;;;;6.05;1.50;;;30.00;36.80;;;;;;5056597;28;20013;-65
2023/09/14 06:37:05;;;;;;;8.80;1.58;;;29.90;36.60;;;;;;5050754;28;20086;-65
2023/09/14 06:39:32;;;;;;;6.25;1.92;;;29.90;36.50;;;;;;5056607;28;20353;-66
2023/09/14 06:41:58;;;;;;;10.75;1.58;;;29.90;37.20;;;;;;5057841;28;20058;-64
2023/09/14 06:44:25;;;;;;;12.30;2.00;;;29.70;36.00;;;;;;5061858;28;20016;-63
2023/09/14 06:46:52;;;;;;;4.50;1.58;;;29.70;37.10;;;;;;5048712;28;20036;-66
2023/09/14 06:49:19;;;;;;;3.75;1.30;;;29.70;36.60;;;;;;5053367;28;20016;-66
2023/09/14 06:51:46;;;;;;;5.78;1.60;;;29.70;36.50;;;;;;5058237;28;20056;-65
2023/09/14 06:54:13;;;;;;;8.13;1.75;;;29.60;37.00;;;;;;5056635;28;20017;-64
2023/09/14 06:56:39;;;;;;;8.65;1.50;;;29.70;36.50;;;;;;5036491;28;20029;-64
2023/09/14 06:59:06;;;;;;;7.70;1.77;;;29.60;36.70;;;;;;5054807;28;20024;-65
2023/09/14 07:01:33;;;;;;;6.22;1.58;;;29.60;36.10;;;;;;5059713;28;20523;-64
2023/09/14 07:04:00;;;;;;;19.40;1.65;;;29.50;36.50;;;;;;5051474;28;20483;-65
2023/09/14 07:06:26;;;;;;;6.43;1.92;;;29.60;36.50;;;;;;5052535;28;20535;-67
2023/09/14 07:08:53;;;;;;;6.28;3.85;;;29.50;36.40;;;;;;5056308;28;20025;-67
2023/09/14 07:11:20;;;;;;;10.02;7.15;;;29.40;35.60;;;;;;5055110;28;21645;-66
2023/09/14 07:13:46;;;;;;;10.80;5.57;;;29.40;36.90;;;;;;5054041;28;20012;-64
2023/09/14 07:16:12;;;;;;;12.65;6.78;;;29.50;35.80;;;;;;5059201;28;20374;-65
2023/09/14 07:18:39;;;;;;;8.40;7.63;;;29.40;35.40;;;;;;5055408;28;20051;-65
2023/09/14 07:21:05;;;;;;;8.68;1.65;;;29.30;35.60;;;;;;5055382;28;20090;-66
2023/09/14 07:23:32;;;;;;;4.43;1.40;;;29.30;35.50;;;;;;5058514;28;20029;-65
2023/09/14 07:25:58;;;;;;;6.72;1.45;;;29.30;35.90;;;;;;5054257;28;20056;-65
2023/09/14 07:28:25;;;;;;;7.88;1.27;;;29.40;35.40;;;;;;5057646;28;20421;-64
2023/09/14 07:30:53;;;;;;;8.30;1.65;;;29.30;35.50;;;;;;5055277;28;20012;-65
2023/09/14 07:33:21;;;;;;;9.25;1.80;;;29.30;35.70;;;;;;5052596;28;20070;-65
2023/09/14 07:35:47;;;;;;;8.52;1.80;;;29.20;35.30;;;;;;5052956;28;20019;-66
2023/09/14 07:38:14;;;;;;;5.97;1.40;;;29.20;35.70;;;;;;5056690;28;20022;-65
2023/09/14 07:40:42;;;;;;;5.18;1.27;;;29.20;35.70;;;;;;5057329;28;20009;-65
2023/09/14 07:43:09;;;;;;;9.05;1.73;;;29.30;35.90;;;;;;5052691;28;20472;-66
2023/09/14 07:45:37;;;;;;;5.75;1.20;;;29.30;35.70;;;;;;5053625;28;20086;-65
2023/09/14 07:48:06;;;;;;;8.02;1.40;;;29.30;35.80;;;;;;5056329;28;20470;-65
2023/09/14 07:50:38;;;;;;;9.25;1.75;;;29.10;35.40;;;;;;5052166;28;20021;-64
2023/09/14 07:53:05;;;;;;;5.40;1.50;;;29.00;35.60;;;;;;5052978;28;20020;-64
2023/09/14 07:55:32;;;;;;;6.22;1.50;;;28.90;35.70;;;;;;5051693;28;20025;-65
2023/09/14 07:57:58;;;;;;;6.25;1.30;;;29.00;36.10;;;;;;5058667;28;20036;-66
2023/09/14 08:00:25;;;;;;;3.63;1.48;;;28.90;36.00;;;;;;5052637;28;20060;-64
2023/09/14 08:02:51;;;;;;;9.20;1.63;;;28.90;35.70;;;;;;5054228;28;20029;-64
2023/09/14 08:05:18;;;;;;;13.23;1.40;;;28.80;35.60;;;;;;5057173;28;20471;-64
2023/09/14 08:07:45;;;;;;;5.93;1.20;;;28.80;35.90;;;;;;5059205;28;20070;-65
2023/09/14 08:10:12;;;;;;;6.93;1.30;;;28.90;35.70;;;;;;5054813;28;20016;-67
2023/09/14 08:12:38;;;;;;;5.80;1.30;;;28.90;36.10;;;;;;5053632;28;20039;-65
2023/09/14 08:15:06;;;;;;;6.07;1.38;;;28.90;36.80;;;;;;5056765;28;20411;-65
2023/09/14 08:17:32;;;;;;;4.40;1.70;;;28.90;36.70;;;;;;5058453;28;20378;-66
2023/09/14 08:20:00;;;;;;;8.25;1.25;;;28.80;37.30;;;;;;5059285;28;20478;-65
2023/09/14 08:22:27;;;;;;;8.88;1.38;;;28.60;38.10;;;;;;5056476;28;20055;-65
2023/09/14 08:24:54;;;;;;;8.38;1.52;;;28.60;37.70;;;;;;5059338;28;20336;-66
2023/09/14 08:27:20;;;;;;;4.53;1.45;;;28.60;37.50;;;;;;5058691;28;20017;-63
2023/09/14 08:29:47;;;;;;;7.30;1.60;;;28.50;37.20;;;;;;5061044;28;20548;-66
2023/09/14 08:32:14;;;;;;;7.43;1.55;;;28.60;37.20;;;;;;5059593;28;20506;-64
2023/09/14 08:34:40;;;;;;;5.43;1.92;;;28.60;38.30;;;;;;5057658;28;20051;-66
2023/09/14 08:37:10;;;;;;;11.50;2.30;;;28.60;37.70;;;;;;5062293;28;20072;-65
2023/09/14 08:39:38;;;;;;;4.70;2.00;;;28.60;38.50;;;;;;5061315;28;20039;-65
2023/09/14 08:42:04;;;;;;;6.97;1.75;;;28.60;38.20;;;;;;5040992;28;20112;-63
2023/09/14 08:44:34;;;;;;;5.10;1.63;;;28.50;37.40;;;;;;5058817;28;20474;-63
2023/09/14 08:47:02;;;;;;;7.60;1.45;;;28.40;37.20;;;;;;5056712;28;20035;-64
2023/09/14 08:49:31;;;;;;;5.03;1.45;;;28.40;37.70;;;;;;5058950;28;20092;-66
2023/09/14 08:51:59;;;;;;;6.13;1.40;;;28.40;38.10;;;;;;5055972;28;20025;-66
2023/09/14 08:54:26;;;;;;;6.95;2.20;;;28.30;37.60;;;;;;5058069;28;20073;-65
2023/09/14 08:56:53;;;;;;;7.15;1.60;;;28.20;37.70;;;;;;5058554;28;20096;-66
2023/09/14 08:59:23;;;;;;;5.78;1.40;;;28.20;37.90;;;;;;5055431;28;20417;-65
2023/09/14 09:01:50;;;;;;;5.05;1.83;;;28.10;37.80;;;;;;5041311;28;20055;-66
2023/09/14 09:04:17;;;;;;;6.40;1.70;;;28.10;38.10;;;;;;5058160;28;20467;-65
2023/09/14 09:06:44;;;;;;;8.90;1.58;;;28.00;38.20;;;;;;5056823;28;20067;-64
2023/09/14 09:09:14;;;;;;;4.32;1.10;;;27.90;38.50;;;;;;5057195;28;20376;-64
2023/09/14 09:11:40;;;;;;;4.22;1.60;;;27.90;39.90;;;;;;5059916;28;20021;-66
2023/09/14 09:14:07;;;;;;;7.60;1.67;;;27.70;39.10;;;;;;5056743;28;20079;-65
2023/09/14 09:16:33;;;;;;;9.00;1.85;;;27.60;40.00;;;;;;5057581;28;20133;-65
2023/09/14 09:19:07;;;;;;;11.65;2.25;;;27.50;39.70;;;;;;5055199;28;20017;-65
2023/09/14 09:21:35;;;;;;;6.28;1.40;;;27.50;40.70;;;;;;5057532;28;20062;-65
2023/09/14 09:24:05;;;;;;;5.88;1.50;;;27.50;40.70;;;;;;5060096;28;20043;-66
2023/09/14 09:26:36;;;;;;;4.55;1.10;;;27.40;40.70;;;;;;5054677;28;20065;-66
2023/09/14 09:29:22;;;;;;;6.38;1.40;;;27.50;40.40;;;;;;5063681;28;20414;-66
2023/09/14 09:31:50;;;;;;;4.53;1.70;;;27.40;39.90;;;;;;5055241;28;20098;-67
2023/09/14 09:34:23;;;;;;;8.88;1.83;;;27.40;41.30;;;;;;5044481;28;20036;-66
2023/09/14 09:36:59;;;;;;;7.15;1.70;;;27.30;41.40;;;;;;5055603;28;20081;-65
2023/09/14 09:39:25;;;;;;;9.70;1.90;;;27.20;41.50;;;;;;5059515;28;20046;-66
2023/09/14 09:41:52;;;;;;;4.63;1.20;;;27.10;41.10;;;;;;5057037;28;20101;-65
2023/09/14 09:44:19;;;;;;;6.68;1.40;;;27.10;41.20;;;;;;5054863;28;20047;-67
2023/09/14 09:46:46;;;;;;;3.40;1.15;;;27.10;42.10;;;;;;5055246;28;20081;-64
2023/09/14 09:49:22;;;;;;;5.95;1.42;;;27.10;40.80;;;;;;5062568;28;20048;-64
2023/09/14 09:51:50;;;;;;;7.97;1.40;;;27.10;40.70;;;;;;5061441;28;20121;-66
2023/09/14 09:54:26;;;;;;;4.68;1.30;;;27.20;41.30;;;;;;5061340;28;20025;-64
2023/09/14 09:56:52;;;;;;;9.27;1.83;;;27.10;40.50;;;;;;5056667;28;20524;-65
2023/09/14 09:59:19;;;;;;;9.52;1.45;;;27.20;40.40;;;;;;5057768;28;20122;-64
2023/09/14 10:01:47;;;;;;;6.22;1.35;;;27.10;40.20;;;;;;5059545;28;20017;-65
2023/09/14 10:04:19;;;;;;;10.68;1.80;;;27.20;40.30;;;;;;5059179;28;20020;-64
2023/09/14 10:06:52;;;;;;;6.18;1.23;;;27.20;39.90;;;;;;5055634;28;20025;-64
2023/09/14 10:09:19;;;;;;;2.40;1.08;;;27.20;39.80;;;;;;5058513;28;20049;-64
2023/09/14 10:11:47;;;;;;;10.32;1.65;;;27.20;40.10;;;;;;5060945;28;20020;-66
2023/09/14 10:14:18;;;;;;;7.97;1.58;;;27.20;41.20;;;;;;5058692;28;20024;-65
2023/09/14 10:16:45;;;;;;;9.90;1.20;;;27.20;40.10;;;;;;5058525;28;20016;-65
2023/09/14 10:19:13;;;;;;;6.18;1.40;;;27.20;40.10;;;;;;5054378;28;20027;-65
2023/09/14 10:21:40;;;;;;;5.05;1.20;;;27.10;40.10;;;;;;5054411;28;20097;-65
2023/09/14 10:24:07;;;;;;;5.97;1.33;;;27.10;39.70;;;;;;5056209;28;20039;-64
2023/09/14 10:26:37;;;;;;;6.03;1.27;;;27.10;39.30;;;;;;5059392;28;20040;-64
2023/09/14 10:29:08;;;;;;;4.78;1.40;;;27.10;39.50;;;;;;5058900;28;20068;-65
2023/09/14 10:31:39;;;;;;;9.50;1.40;;;27.10;39.90;;;;;;5053630;28;20043;-64
2023/09/14 10:34:08;;;;;;;6.72;1.50;;;27.10;39.50;;;;;;5056278;28;20039;-66
2023/09/14 10:36:38;;;;;;;7.03;1.85;;;27.00;39.20;;;;;;5055197;28;20126;-65
2023/09/14 10:39:06;;;;;;;7.05;1.25;;;27.10;39.50;;;;;;5058517;28;20606;-66
2023/09/14 10:41:32;;;;;;;4.88;1.15;;;27.00;39.40;;;;;;5056976;28;20110;-64
2023/09/14 10:43:59;;;;;;;4.60;1.58;;;27.00;38.70;;;;;;5055332;28;20163;-66
2023/09/14 10:46:35;;;;;;;3.95;1.23;;;27.10;38.80;;;;;;5058670;28;20056;-64
2023/09/14 10:49:02;;;;;;;;;;;26.90;39.00;;;;;;5058705;28;20058;-65
2023/09/14 10:51:29;;;;;;;4.68;1.38;;;26.90;39.90;;;;;;5054613;28;19947;-65
2023/09/14 10:53:57;;;;;;;5.30;1.23;;;26.90;40.00;;;;;;5060995;28;20051;-66
2023/09/14 10:56:31;;;;;;;7.65;1.23;;;26.90;40.00;;;;;;5064469;28;20039;-66
2023/09/14 10:58:58;;;;;;;9.00;1.40;;;27.00;39.70;;;;;;5057515;28;20017;-65
2023/09/14 11:01:26;;;;;;;5.45;1.20;;;27.00;40.60;;;;;;5056079;28;20639;-65
2023/09/14 11:04:15;;;;;;;3.38;1.42;;;26.90;39.50;;;;;;5059380;28;20047;-66
2023/09/14 11:06:45;;;;;;;4.70;1.20;;;26.90;39.40;;;;;;5051521;28;20055;-67
2023/09/14 11:09:14;;;;;;;11.55;1.23;;;26.80;39.60;;;;;;5054463;28;20041;-66
2023/09/14 11:11:45;;;;;;;9.85;1.67;;;26.70;39.80;;;;;;5053582;28;20058;-66
2023/09/14 11:14:14;;;;;;;10.95;1.40;;;26.70;40.20;;;;;;5053213;28;20040;-66
2023/09/14 11:17:00;;;;;;;6.68;1.52;;;26.60;40.40;;;;;;5058368;28;20066;-65
2023/09/14 11:19:32;;;;;;;3.60;1.20;;;26.50;41.60;;;;;;5054983;28;20184;-66
2023/09/14 11:22:05;;;;;;;4.22;0.90;;;26.60;41.50;;;;;;5057723;28;20410;-64
2023/09/14 11:24:36;;;;;;;4.85;1.20;;;26.50;41.00;;;;;;5052161;28;20048;-65
2023/09/14 11:27:02;;;;;;;6.53;1.33;;;26.40;41.30;;;;;;5052130;28;20147;-63
2023/09/14 11:29:32;;;;;;;7.20;1.40;;;26.40;41.30;;;;;;5053592;28;20040;-66
2023/09/14 11:32:03;;;;;;;5.28;1.30;;;26.30;41.60;;;;;;5064558;28;20132;-66
2023/09/14 11:34:31;;;;;;;3.50;1.30;;;26.20;41.70;;;;;;5056230;28;20130;-64
2023/09/14 11:37:02;;;;;;;4.53;1.10;;;26.20;42.00;;;;;;5060692;28;20525;-66
2023/09/14 11:39:31;;;;;;;5.63;1.35;;;26.20;42.40;;;;;;5058604;28;20055;-66
2023/09/14 11:42:00;;;;;;;10.38;1.60;;;26.10;42.40;;;;;;5056889;28;20041;-66
2023/09/14 11:44:29;;;;;;;9.32;1.55;;;26.10;42.10;;;;;;5055645;28;20060;-63
2023/09/14 11:47:00;;;;;;;7.40;1.20;;;26.10;42.80;;;;;;5054152;28;20060;-66
2023/09/14 11:49:36;;;;;;;7.45;1.77;;;26.00;42.60;;;;;;5058600;28;20048;-64
2023/09/14 11:52:02;;;;;;;;;;;26.00;42.80;;;;;;5055631;28;20065;-65
2023/09/14 11:54:32;;;;;;;17.40;2.50;;;25.90;42.30;;;;;;5053286;28;19934;-65
2023/09/14 11:57:00;;;;;;;14.05;2.05;;;25.70;42.40;;;;;;5060363;28;20047;-65
2023/09/14 11:59:33;;;;;;;10.73;2.45;;;25.70;43.90;;;;;;5062402;28;20088;-64
2023/09/14 12:02:01;;;;;;;14.90;2.30;;;25.70;44.30;;;;;;5058776;28;20055;-65
2023/09/14 12:04:29;;;;;;;19.15;2.55;;;25.60;43.40;;;;;;5057734;28;20077;-64
2023/09/14 12:06:58;;;;;;;14.60;2.88;;;25.70;43.70;;;;;;5059992;28;20146;-64
2023/09/14 12:09:35;;;;;;;14.98;2.90;;;25.70;45.20;;;;;;5055975;28;20052;-65
2023/09/14 12:12:01;;;;;;;21.27;3.90;;;25.70;44.40;;;;;;5056064;28;20069;-66
2023/09/14 12:14:37;;;;;;;34.80;5.10;;;25.60;45.80;;;;;;5060585;28;20062;-65
2023/09/14 12:17:27;;;;;;;22.00;4.35;;;25.50;45.50;;;;;;5063123;28;20042;-65
2023/09/14 12:19:56;;;;;;;34.92;5.72;;;25.50;47.40;;;;;;5057058;28;20051;-65
2023/09/14 12:22:25;;;;;;;25.83;5.15;;;25.40;45.90;;;;;;5064239;28;20500;-65
2023/09/14 12:24:52;;;;;;;41.55;5.50;;;25.40;45.90;;;;;;5056610;28;20048;-66
2023/09/14 12:27:19;;;;;;;25.77;5.05;;;25.30;46.20;;;;;;5057125;28;20062;-66
2023/09/14 12:29:47;;;;;;;18.40;5.18;;;25.40;47.10;;;;;;5061613;28;20055;-65
2023/09/14 12:32:15;;;;;;;25.10;5.22;;;25.30;48.50;;;;;;5055621;28;20101;-64
2023/09/14 12:34:42;;;;;;;46.40;6.72;;;25.20;46.90;;;;;;5044854;28;20043;-65
2023/09/14 12:37:09;;;;;;;33.00;5.95;;;25.30;46.90;;;;;;5059439;28;20608;-64
2023/09/14 12:39:36;;;;;;;40.20;6.70;;;25.40;46.90;;;;;;5058958;28;20055;-66
2023/09/14 12:42:03;;;;;;;33.53;6.70;;;25.40;47.10;;;;;;5065555;28;20045;-65
2023/09/14 12:44:30;;;;;;;38.38;6.68;;;25.30;47.40;;;;;;5059453;28;20064;-66
2023/09/14 12:46:57;;;;;;;40.38;8.43;;;25.10;48.60;;;;;;5061500;28;20054;-65